createdAt,value
2023-05-14T00:01:36.842Z,16.02
2023-05-14T00:04:04.751Z,16.17
2023-05-14T00:06:32.088Z,15.48
2023-05-14T00:08:59.279Z,15.05
2023-05-14T00:11:26.569Z,15.98
2023-05-14T00:13:53.825Z,15.40
2023-05-14T00:16:21.066Z,16.08
2023-05-14T00:18:48.447Z,17.17
2023-05-14T00:21:15.846Z,17.60
2023-05-14T00:23:43.114Z,16.58
2023-05-14T00:26:10.832Z,15.75
2023-05-14T00:28:40.329Z,16.92
2023-05-14T00:31:07.539Z,16.33
2023-05-14T00:33:35.148Z,17.60
2023-05-14T00:36:02.489Z,17.30
2023-05-14T00:38:29.791Z,14.65
2023-05-14T00:40:57.027Z,14.95
2023-05-14T00:43:25.204Z,16.08
2023-05-14T00:45:53.311Z,17.58
2023-05-14T00:48:21.232Z,15.95
2023-05-14T00:50:50.132Z,17.02
2023-05-14T00:53:17.612Z,14.93
2023-05-14T00:55:46.058Z,16.35
2023-05-14T00:58:14.075Z,15.82
2023-05-14T01:00:41.800Z,15.88
2023-05-14T01:03:09.851Z,16.42
2023-05-14T01:05:57.019Z,17.90
2023-05-14T01:08:40.496Z,16.38
2023-05-14T01:11:12.099Z,17.35
2023-05-14T01:13:51.158Z,17.90
2023-05-14T01:16:20.077Z,19.15
2023-05-14T01:18:49.326Z,18.10
2023-05-14T01:23:43.957Z,17.88
2023-05-14T01:26:11.363Z,19.23
2023-05-14T01:28:39.138Z,17.40
2023-05-14T01:31:12.917Z,16.73
2023-05-14T01:33:42.180Z,16.55
2023-05-14T01:36:09.918Z,18.20
2023-05-14T01:38:38.065Z,15.98
2023-05-14T01:41:05.686Z,15.93
2023-05-14T01:43:33.127Z,16.73
2023-05-14T01:46:00.472Z,18.83
2023-05-14T01:48:29.931Z,20.27
2023-05-14T01:50:57.245Z,17.38
2023-05-14T01:53:24.513Z,16.98
2023-05-14T01:55:51.742Z,17.23
2023-05-14T01:58:19.870Z,20.52
2023-05-14T02:00:47.267Z,17.02
2023-05-14T02:03:14.499Z,17.50
2023-05-14T02:05:41.848Z,20.23
2023-05-14T02:08:09.078Z,19.40
2023-05-14T02:10:36.308Z,17.95
2023-05-14T02:13:04.159Z,18.42
2023-05-14T02:15:31.472Z,18.27
2023-05-14T02:17:58.809Z,17.27
2023-05-14T02:20:26.249Z,17.13
2023-05-14T02:22:53.560Z,17.85
2023-05-14T02:25:21.478Z,18.63
2023-05-14T02:27:49.460Z,18.02
2023-05-14T02:30:16.822Z,18.90
2023-05-14T02:32:44.486Z,18.20
2023-05-14T02:35:11.806Z,17.08
2023-05-14T02:37:39.049Z,17.25
2023-05-14T02:40:06.622Z,19.00
2023-05-14T02:42:33.883Z,17.63
2023-05-14T02:45:01.505Z,18.83
2023-05-14T02:47:28.860Z,17.73
2023-05-14T02:49:56.402Z,17.50
2023-05-14T02:52:23.774Z,19.25
2023-05-14T02:54:50.965Z,18.52
2023-05-14T02:57:18.231Z,18.15
2023-05-14T02:59:45.523Z,19.80
2023-05-14T03:02:13.440Z,20.08
2023-05-14T03:04:41.221Z,19.20
2023-05-14T03:07:08.558Z,20.48
2023-05-14T03:09:38.132Z,22.42
2023-05-14T03:12:05.889Z,18.92
2023-05-14T03:14:33.194Z,20.88
2023-05-14T03:17:00.732Z,19.00
2023-05-14T03:19:27.970Z,20.95
2023-05-14T03:21:55.220Z,18.48
2023-05-14T03:24:22.521Z,20.17
2023-05-14T03:26:50.310Z,19.80
2023-05-14T03:29:18.154Z,18.50
2023-05-14T03:31:45.693Z,19.65
2023-05-14T03:34:12.982Z,18.27
2023-05-14T03:36:40.308Z,20.70
2023-05-14T03:39:07.591Z,19.50
2023-05-14T03:41:36.477Z,19.23
2023-05-14T03:44:03.801Z,18.75
2023-05-14T03:46:31.023Z,18.52
2023-05-14T03:48:58.443Z,19.40
2023-05-14T03:51:25.724Z,17.48
2023-05-14T03:53:52.961Z,18.55
2023-05-14T03:56:20.763Z,19.35
2023-05-14T03:58:47.985Z,19.17
2023-05-14T04:01:15.577Z,18.98
2023-05-14T04:03:42.960Z,20.02
2023-05-14T04:06:11.004Z,19.15
2023-05-14T04:08:38.279Z,20.55
2023-05-14T04:11:05.733Z,19.05
2023-05-14T04:13:32.965Z,19.38
2023-05-14T04:16:00.586Z,20.58
2023-05-14T04:18:27.880Z,19.83
2023-05-14T04:20:55.298Z,20.27
2023-05-14T04:23:22.683Z,20.33
2023-05-14T04:25:49.893Z,20.08
2023-05-14T04:28:19.835Z,20.80
2023-05-14T04:30:47.041Z,23.00
2023-05-14T04:33:14.258Z,22.65
2023-05-14T04:35:41.468Z,22.70
2023-05-14T04:38:09.998Z,21.50
2023-05-14T04:40:37.454Z,21.67
2023-05-14T04:43:04.711Z,23.55
2023-05-14T04:45:34.309Z,23.17
2023-05-14T04:48:01.862Z,22.48
2023-05-14T04:50:29.167Z,22.25
2023-05-14T04:52:56.410Z,23.52
2023-05-14T04:55:23.742Z,23.42
2023-05-14T04:57:51.167Z,23.67
2023-05-14T05:00:19.258Z,24.55
2023-05-14T05:02:46.577Z,23.70
2023-05-14T05:05:13.937Z,21.40
2023-05-14T05:07:41.266Z,23.70
2023-05-14T05:10:08.873Z,21.17
2023-05-14T05:12:36.189Z,23.27
2023-05-14T05:15:03.476Z,23.05
2023-05-14T05:17:31.016Z,22.85
2023-05-14T05:19:58.270Z,24.80
2023-05-14T05:22:25.869Z,21.05
2023-05-14T05:24:53.087Z,22.50
2023-05-14T05:27:22.059Z,21.63
2023-05-14T05:29:49.220Z,24.17
2023-05-14T05:32:16.517Z,23.25
2023-05-14T05:34:43.879Z,22.38
2023-05-14T05:37:12.828Z,21.50
2023-05-14T05:39:40.446Z,23.58
2023-05-14T05:42:08.232Z,23.17
2023-05-14T05:44:35.526Z,21.60
2023-05-14T05:47:02.918Z,23.70
2023-05-14T05:49:30.245Z,23.25
2023-05-14T05:51:57.766Z,24.38
2023-05-14T05:54:25.587Z,23.60
2023-05-14T05:56:52.864Z,21.30
2023-05-14T05:59:20.088Z,23.05
2023-05-14T06:01:48.139Z,23.08
2023-05-14T06:04:15.388Z,22.27
2023-05-14T06:06:42.638Z,23.58
2023-05-14T06:09:09.987Z,22.63
2023-05-14T06:11:37.234Z,22.88
2023-05-14T06:14:04.698Z,22.92
2023-05-14T06:16:31.992Z,20.92
2023-05-14T06:18:59.311Z,20.77
2023-05-14T06:21:26.599Z,20.85
2023-05-14T06:23:53.831Z,18.70
2023-05-14T06:26:21.197Z,19.67
2023-05-14T06:28:48.471Z,19.98
2023-05-14T06:31:15.792Z,17.98
2023-05-14T06:33:43.093Z,17.67
2023-05-14T06:36:10.595Z,16.92
2023-05-14T06:38:37.836Z,19.25
2023-05-14T06:41:05.081Z,17.23
2023-05-14T06:43:32.313Z,15.50
2023-05-14T06:45:59.940Z,18.25
2023-05-14T06:48:29.450Z,17.17
2023-05-14T06:50:56.828Z,17.05
2023-05-14T06:53:24.058Z,15.85
2023-05-14T06:55:51.287Z,16.83
2023-05-14T06:58:18.601Z,15.35
2023-05-14T07:00:46.037Z,16.05
2023-05-14T07:03:13.449Z,13.88
2023-05-14T07:05:41.261Z,13.80
2023-05-14T07:08:08.578Z,15.77
2023-05-14T07:10:35.891Z,15.57
2023-05-14T07:13:04.362Z,15.18
2023-05-14T07:15:31.695Z,13.63
2023-05-14T07:17:59.171Z,13.80
2023-05-14T07:20:26.858Z,13.43
2023-05-14T07:22:54.324Z,14.43
2023-05-14T07:25:21.685Z,13.18
2023-05-14T07:27:49.186Z,14.48
2023-05-14T07:30:16.553Z,13.63
2023-05-14T07:32:43.940Z,14.05
2023-05-14T07:35:11.881Z,13.60
2023-05-14T07:37:39.369Z,14.60
2023-05-14T07:40:06.995Z,12.80
2023-05-14T07:42:37.030Z,13.27
2023-05-14T07:45:04.977Z,11.95
2023-05-14T07:47:32.409Z,13.32
2023-05-14T07:49:59.922Z,13.70
2023-05-14T07:52:27.142Z,13.38
2023-05-14T07:54:54.996Z,12.80
2023-05-14T07:57:22.480Z,11.70
2023-05-14T07:59:50.445Z,12.90
2023-05-14T08:02:17.820Z,13.10
2023-05-14T08:04:45.422Z,11.65
2023-05-14T08:07:12.721Z,12.65
2023-05-14T08:09:40.018Z,11.02
2023-05-14T08:12:07.595Z,11.30
2023-05-14T08:14:35.081Z,11.38
2023-05-14T08:17:02.416Z,10.65
2023-05-14T08:19:29.703Z,10.63
2023-05-14T08:21:57.318Z,10.15
2023-05-14T08:24:24.588Z,11.05
2023-05-14T08:26:52.587Z,11.38
2023-05-14T08:29:19.834Z,10.98
2023-05-14T08:31:47.175Z,10.68
2023-05-14T08:34:14.515Z,13.05
2023-05-14T08:36:42.085Z,10.98
2023-05-14T08:39:09.338Z,11.82
2023-05-14T08:41:37.660Z,11.07
2023-05-14T08:44:11.196Z,10.83
2023-05-14T08:46:39.143Z,12.13
2023-05-14T08:49:29.597Z,12.65
2023-05-14T08:51:56.917Z,11.77
2023-05-14T08:54:25.282Z,11.85
2023-05-14T08:56:53.556Z,10.60
2023-05-14T08:59:22.040Z,10.75
2023-05-14T09:01:50.315Z,10.38
2023-05-14T09:04:20.717Z,11.13
2023-05-14T09:06:49.848Z,11.07
2023-05-14T09:11:47.944Z,10.20
2023-05-14T09:14:15.216Z,11.13
2023-05-14T09:16:43.587Z,10.05
2023-05-14T09:19:11.242Z,10.15
2023-05-14T09:21:38.607Z,9.77
2023-05-14T09:24:05.956Z,10.35
2023-05-14T09:26:33.779Z,9.98
2023-05-14T09:29:05.052Z,9.80
2023-05-14T09:31:33.136Z,14.18
2023-05-14T09:34:00.746Z,13.17
2023-05-14T09:36:27.985Z,19.02
2023-05-14T09:38:58.072Z,13.93
2023-05-14T09:41:25.772Z,32.38
2023-05-14T09:43:53.109Z,22.50
2023-05-14T09:46:20.358Z,29.50
2023-05-14T09:48:47.658Z,25.05
2023-05-14T09:51:14.938Z,30.25
2023-05-14T09:53:43.698Z,18.75
2023-05-14T09:56:11.181Z,10.90
2023-05-14T09:58:38.474Z,12.45
2023-05-14T10:01:06.614Z,11.52
2023-05-14T10:03:33.869Z,11.80
2023-05-14T10:06:04.621Z,8.68
2023-05-14T10:08:35.441Z,8.27
2023-05-14T10:11:04.254Z,8.23
2023-05-14T10:13:32.595Z,8.35
2023-05-14T10:16:09.863Z,8.18
2023-05-14T10:18:41.126Z,8.30
2023-05-14T10:21:08.814Z,7.47
2023-05-14T10:23:37.884Z,7.45
2023-05-14T10:26:05.837Z,8.68
2023-05-14T10:28:33.345Z,7.82
2023-05-14T10:31:01.021Z,8.48
2023-05-14T10:33:28.417Z,7.82
2023-05-14T10:35:55.609Z,7.53
2023-05-14T10:38:24.062Z,8.88
2023-05-14T10:40:54.064Z,10.15
2023-05-14T10:43:22.113Z,7.75
2023-05-14T10:45:49.392Z,8.20
2023-05-14T10:48:16.699Z,6.70
2023-05-14T10:50:44.228Z,7.15
2023-05-14T10:53:13.680Z,7.43
2023-05-14T10:55:40.948Z,7.93
2023-05-14T10:58:09.464Z,7.47
2023-05-14T11:00:38.880Z,6.90
2023-05-14T11:03:06.805Z,7.80
2023-05-14T11:05:37.252Z,6.73
2023-05-14T11:08:07.863Z,7.85
2023-05-14T11:10:35.990Z,6.97
2023-05-14T11:13:03.389Z,6.82
2023-05-14T11:15:31.211Z,7.10
2023-05-14T11:17:58.483Z,7.07
2023-05-14T11:20:26.057Z,6.32
2023-05-14T11:22:53.499Z,6.65
2023-05-14T11:25:21.726Z,7.72
2023-05-14T11:27:50.776Z,6.53
2023-05-14T11:30:20.591Z,6.85
2023-05-14T11:33:02.077Z,6.60
2023-05-14T11:35:31.666Z,6.88
2023-05-14T11:38:03.618Z,5.80
2023-05-14T11:40:33.207Z,6.13
2023-05-14T11:43:02.365Z,6.03
2023-05-14T11:45:34.237Z,6.22
2023-05-14T11:48:03.838Z,6.43
2023-05-14T11:50:33.649Z,5.65
2023-05-14T11:53:02.585Z,6.25
2023-05-14T11:55:30.399Z,6.03
2023-05-14T11:57:58.059Z,6.55
2023-05-14T12:00:27.249Z,5.80
2023-05-14T12:02:55.262Z,7.13
2023-05-14T12:05:22.678Z,5.10
2023-05-14T12:07:50.074Z,5.65
2023-05-14T12:10:17.316Z,5.50
2023-05-14T12:12:46.515Z,4.82
2023-05-14T12:15:14.835Z,5.10
2023-05-14T12:17:42.233Z,5.28
2023-05-14T12:20:13.526Z,5.78
2023-05-14T12:22:42.435Z,5.50
2023-05-14T12:25:13.919Z,5.50
2023-05-14T12:27:41.463Z,5.78
2023-05-14T12:32:42.967Z,5.38
2023-05-14T12:35:10.898Z,6.28
2023-05-14T12:37:39.948Z,6.10
2023-05-14T12:40:10.460Z,6.40
2023-05-14T12:42:38.197Z,5.88
2023-05-14T12:45:07.903Z,7.47
2023-05-14T12:47:36.109Z,6.88
2023-05-14T12:50:03.799Z,6.28
2023-05-14T12:55:01.449Z,7.00
2023-05-14T12:57:30.207Z,6.95
2023-05-14T13:02:24.583Z,7.10
2023-05-14T13:04:51.861Z,6.60
2023-05-14T13:07:19.057Z,6.75
2023-05-14T13:09:46.295Z,6.90
2023-05-14T13:12:13.596Z,7.22
2023-05-14T13:14:40.934Z,6.35
2023-05-14T13:17:08.394Z,6.75
2023-05-14T13:19:35.774Z,6.88
2023-05-14T13:22:03.034Z,7.50
2023-05-14T13:24:30.401Z,6.65
2023-05-14T13:26:57.677Z,6.65
2023-05-14T13:29:25.104Z,6.85
2023-05-14T13:31:53.026Z,6.68
2023-05-14T13:34:20.338Z,6.32
2023-05-14T13:36:49.682Z,6.13
2023-05-14T13:39:17.136Z,6.60
2023-05-14T13:41:44.672Z,6.03
2023-05-14T13:44:11.920Z,6.97
2023-05-14T13:46:39.199Z,6.45
2023-05-14T13:49:06.561Z,6.03
2023-05-14T13:51:33.857Z,6.78
2023-05-14T13:54:01.061Z,5.90
2023-05-14T13:56:28.402Z,5.82
2023-05-14T13:58:55.875Z,6.85
2023-05-14T14:01:23.423Z,6.95
2023-05-14T14:03:50.774Z,6.13
2023-05-14T14:06:18.041Z,5.80
2023-05-14T14:08:45.284Z,5.47
2023-05-14T14:11:13.670Z,5.72
2023-05-14T14:13:41.506Z,6.32
2023-05-14T14:16:08.983Z,6.10
2023-05-14T14:18:36.297Z,6.00
2023-05-14T14:21:03.680Z,6.35
2023-05-14T14:23:35.515Z,7.10
2023-05-14T14:26:04.839Z,7.82
2023-05-14T14:28:37.828Z,8.63
2023-05-14T14:31:06.156Z,8.48
2023-05-14T14:33:34.199Z,8.10
2023-05-14T14:36:06.558Z,8.05
2023-05-14T14:38:35.061Z,8.85
2023-05-14T14:41:05.187Z,7.45
2023-05-14T14:43:34.136Z,7.80
2023-05-14T14:46:03.494Z,7.53
2023-05-14T14:51:10.146Z,6.82
2023-05-14T14:53:38.629Z,6.65
2023-05-14T14:58:33.975Z,6.50
2023-05-14T15:01:01.533Z,6.40
2023-05-14T15:03:29.180Z,6.63
2023-05-14T15:05:56.537Z,6.85
2023-05-14T15:08:27.493Z,5.85
2023-05-14T15:10:55.608Z,5.38
2023-05-14T15:13:23.279Z,6.13
2023-05-14T15:15:51.525Z,5.13
2023-05-14T15:18:18.877Z,5.85
2023-05-14T15:20:47.668Z,5.90
2023-05-14T15:23:15.615Z,6.10
2023-05-14T15:25:42.859Z,5.70
2023-05-14T15:28:10.170Z,6.00
2023-05-14T15:30:37.703Z,6.88
2023-05-14T15:33:05.050Z,6.65
2023-05-14T15:35:32.571Z,7.03
2023-05-14T15:37:59.777Z,6.45
2023-05-14T15:40:27.928Z,6.40
2023-05-14T15:42:55.202Z,6.65
2023-05-14T15:45:22.541Z,6.88
2023-05-14T15:47:49.982Z,7.00
2023-05-14T15:50:19.030Z,7.20
2023-05-14T15:52:46.587Z,7.05
2023-05-14T15:55:14.795Z,7.80
2023-05-14T15:57:52.405Z,7.88
2023-05-14T16:00:36.503Z,7.85
2023-05-14T16:03:05.522Z,8.25
2023-05-14T16:05:33.698Z,8.00
2023-05-14T16:08:02.106Z,8.05
2023-05-14T16:10:29.501Z,7.90
2023-05-14T16:12:58.252Z,8.57
2023-05-14T16:15:26.856Z,7.68
2023-05-14T16:17:55.246Z,9.93
2023-05-14T16:22:50.584Z,9.75
2023-05-14T16:25:18.705Z,8.38
2023-05-14T16:27:49.303Z,9.40
2023-05-14T16:30:17.730Z,9.68
2023-05-14T16:32:49.443Z,9.73
2023-05-14T16:35:17.209Z,9.80
2023-05-14T16:37:44.765Z,10.35
2023-05-14T16:40:12.328Z,10.20
2023-05-14T16:42:39.680Z,12.13
2023-05-14T16:45:07.208Z,12.38
2023-05-14T16:47:34.502Z,13.05
2023-05-14T16:50:01.917Z,12.93
2023-05-14T16:52:29.265Z,10.18
2023-05-14T16:54:56.581Z,7.82
2023-05-14T16:57:24.046Z,9.77
2023-05-14T16:59:51.346Z,8.30
2023-05-14T17:02:18.555Z,7.90
2023-05-14T17:04:46.184Z,7.78
2023-05-14T17:07:13.545Z,7.93
2023-05-14T17:09:40.816Z,6.72
2023-05-14T17:12:08.299Z,7.30
2023-05-14T17:14:35.786Z,7.63
2023-05-14T17:17:03.058Z,7.93
2023-05-14T17:19:30.442Z,6.38
2023-05-14T17:21:57.771Z,7.85
2023-05-14T17:24:25.407Z,6.13
2023-05-14T17:26:52.890Z,6.65
2023-05-14T17:29:20.215Z,6.88
2023-05-14T17:31:49.475Z,7.15
2023-05-14T17:34:17.777Z,6.82
2023-05-14T17:36:45.040Z,7.05
2023-05-14T17:39:12.289Z,6.75
2023-05-14T17:41:48.009Z,6.28
2023-05-14T17:44:17.364Z,6.90
2023-05-14T17:46:46.840Z,6.32
2023-05-14T17:49:19.740Z,6.13
2023-05-14T17:51:53.321Z,11.27
2023-05-14T17:54:25.708Z,7.07
2023-05-14T17:57:13.213Z,7.10
2023-05-14T18:02:12.874Z,6.53
2023-05-14T18:04:44.359Z,6.32
2023-05-14T18:07:11.840Z,6.68
2023-05-14T18:09:41.376Z,7.07
2023-05-14T18:12:11.968Z,6.40
2023-05-14T18:14:45.330Z,7.72
2023-05-14T18:17:18.419Z,7.95
2023-05-14T18:19:52.126Z,7.97
2023-05-14T18:22:41.775Z,7.28
2023-05-14T18:25:11.207Z,7.38
2023-05-14T18:27:45.471Z,6.75
2023-05-14T18:30:21.535Z,8.00
2023-05-14T18:32:50.357Z,7.20
2023-05-14T18:35:18.335Z,7.28
2023-05-14T18:37:45.948Z,7.82
2023-05-14T18:40:16.905Z,6.90
2023-05-14T18:42:45.691Z,8.00
2023-05-14T18:45:13.034Z,7.40
2023-05-14T18:47:40.546Z,7.40
2023-05-14T18:50:08.497Z,7.55
2023-05-14T18:52:35.902Z,7.00
2023-05-14T18:55:03.175Z,7.07
2023-05-14T18:57:32.627Z,7.15
2023-05-14T19:00:03.922Z,8.30
2023-05-14T19:02:31.501Z,7.13
2023-05-14T19:04:58.839Z,7.65
2023-05-14T19:07:27.705Z,6.90
2023-05-14T19:09:54.953Z,7.63
2023-05-14T19:12:22.190Z,7.78
2023-05-14T19:14:49.413Z,7.70
2023-05-14T19:17:18.468Z,8.02
2023-05-14T19:19:47.381Z,7.28
2023-05-14T19:22:14.653Z,8.07
2023-05-14T19:24:41.890Z,8.13
2023-05-14T19:27:09.436Z,7.68
2023-05-14T19:29:36.981Z,8.63
2023-05-14T19:32:04.732Z,8.25
2023-05-14T19:34:32.146Z,8.02
2023-05-14T19:36:59.447Z,8.15
2023-05-14T19:39:26.783Z,8.60
2023-05-14T19:41:54.098Z,8.50
2023-05-14T19:44:21.441Z,8.20
2023-05-14T19:46:48.747Z,7.80
2023-05-14T19:49:15.991Z,9.30
2023-05-14T19:51:43.455Z,9.35
2023-05-14T19:54:10.791Z,9.80
2023-05-14T19:56:38.401Z,9.43
2023-05-14T19:59:05.640Z,8.95
2023-05-14T20:01:34.181Z,9.68
2023-05-14T20:04:02.256Z,9.70
2023-05-14T20:06:29.634Z,10.60
2023-05-14T20:08:56.901Z,9.57
2023-05-14T20:11:24.198Z,10.15
2023-05-14T20:13:51.451Z,9.77
2023-05-14T20:16:18.842Z,10.32
2023-05-14T20:18:46.326Z,10.15
2023-05-14T20:21:13.677Z,10.70
2023-05-14T20:23:41.117Z,12.27
2023-05-14T20:26:08.538Z,10.23
2023-05-14T20:28:35.838Z,11.63
2023-05-14T20:31:04.009Z,11.55
2023-05-14T20:33:31.368Z,11.87
2023-05-14T20:35:58.638Z,11.05
2023-05-14T20:38:29.173Z,10.38
2023-05-14T20:40:59.381Z,11.30
2023-05-14T20:43:29.474Z,10.93
2023-05-14T20:45:58.916Z,12.10
2023-05-14T20:48:26.282Z,11.68
2023-05-14T20:50:53.574Z,10.93
2023-05-14T20:53:21.104Z,12.10
2023-05-14T20:55:48.337Z,12.85
2023-05-14T20:58:15.919Z,11.30
2023-05-14T21:00:43.468Z,12.93
2023-05-14T21:03:10.993Z,11.80
2023-05-14T21:05:40.151Z,12.23
2023-05-14T21:08:07.529Z,13.30
2023-05-14T21:10:35.123Z,13.07
2023-05-14T21:13:02.358Z,14.73
2023-05-14T21:15:30.728Z,14.10
2023-05-14T21:17:58.147Z,12.73
2023-05-14T21:20:25.568Z,13.63
2023-05-14T21:22:52.904Z,14.00
2023-05-14T21:25:20.314Z,14.38
2023-05-14T21:27:47.637Z,14.45
2023-05-14T21:30:15.102Z,14.45
2023-05-14T21:32:42.502Z,15.20
2023-05-14T21:35:10.000Z,15.82
2023-05-14T21:37:39.320Z,16.00
2023-05-14T21:42:37.174Z,15.68
2023-05-14T21:45:04.777Z,16.57
2023-05-14T21:47:32.216Z,17.85
2023-05-14T21:49:59.644Z,18.10
2023-05-14T21:52:27.179Z,18.70
2023-05-14T21:54:54.629Z,20.63
2023-05-14T21:57:21.954Z,20.30
2023-05-14T21:59:49.282Z,18.92
2023-05-14T22:02:16.691Z,19.45
2023-05-14T22:04:44.043Z,20.17
2023-05-14T22:07:11.399Z,19.13
2023-05-14T22:09:38.686Z,20.50
2023-05-14T22:12:07.016Z,20.17
2023-05-14T22:14:34.434Z,20.87
2023-05-14T22:17:01.678Z,20.08
2023-05-14T22:19:29.203Z,21.30
2023-05-14T22:21:56.547Z,23.25
2023-05-14T22:24:23.805Z,22.35
2023-05-14T22:26:51.311Z,20.35
2023-05-14T22:29:18.602Z,22.25
2023-05-14T22:31:46.002Z,23.52
2023-05-14T22:34:13.336Z,21.45
2023-05-14T22:36:40.690Z,22.00
2023-05-14T22:39:08.081Z,22.85
2023-05-14T22:41:35.628Z,22.15
2023-05-14T22:44:02.830Z,24.33
2023-05-14T22:46:30.531Z,23.92
2023-05-14T22:48:57.821Z,23.13
2023-05-14T22:51:25.431Z,24.60
2023-05-14T22:53:52.771Z,23.85
2023-05-14T22:56:21.633Z,24.90
2023-05-14T22:58:48.894Z,25.08
2023-05-14T23:01:16.091Z,25.42
2023-05-14T23:03:43.358Z,26.90
2023-05-14T23:06:13.726Z,24.83
2023-05-14T23:08:41.231Z,25.80
2023-05-14T23:11:08.522Z,27.10
2023-05-14T23:13:35.885Z,25.70
2023-05-14T23:16:03.773Z,27.35
2023-05-14T23:18:31.234Z,26.13
2023-05-14T23:20:58.745Z,25.50
2023-05-14T23:23:26.047Z,26.98
2023-05-14T23:25:54.157Z,25.77
2023-05-14T23:28:21.572Z,26.98
2023-05-14T23:30:48.799Z,27.50
2023-05-14T23:33:16.255Z,27.30
2023-05-14T23:35:43.511Z,27.75
2023-05-14T23:38:10.784Z,29.08
2023-05-14T23:40:46.786Z,26.63
2023-05-14T23:43:25.494Z,28.38
2023-05-14T23:45:54.782Z,28.42
2023-05-14T23:48:22.074Z,27.45
2023-05-14T23:50:49.382Z,28.73
2023-05-14T23:53:16.726Z,28.92
2023-05-14T23:55:44.205Z,28.67
2023-05-14T23:58:11.442Z,28.10
